createdAt,value
2018-11-03T00:01:20.161Z,83.69
2018-11-03T00:03:48.792Z,83.16
2018-11-03T00:06:17.494Z,83.91
2018-11-03T00:08:46.106Z,83.86
2018-11-03T00:11:14.680Z,83.99
2018-11-03T00:13:43.272Z,83.87
2018-11-03T00:16:11.930Z,84.49
2018-11-03T00:18:40.644Z,84.27
2018-11-03T00:21:09.326Z,84.50
2018-11-03T00:23:37.947Z,84.61
2018-11-03T00:26:06.608Z,84.53
2018-11-03T00:28:35.236Z,85.53
2018-11-03T00:31:03.867Z,85.79
2018-11-03T00:33:32.467Z,85.86
2018-11-03T00:36:01.121Z,86.51
2018-11-03T00:38:29.753Z,86.86
2018-11-03T00:40:58.431Z,86.27
2018-11-03T00:43:27.071Z,86.65
2018-11-03T00:45:55.702Z,86.37
2018-11-03T00:48:24.564Z,86.10
2018-11-03T00:50:53.216Z,86.62
2018-11-03T00:53:21.848Z,87.04
2018-11-03T00:55:50.485Z,86.75
2018-11-03T00:58:19.108Z,86.36
2018-11-03T01:00:47.726Z,86.91
2018-11-03T01:03:16.385Z,86.24
2018-11-03T01:05:44.986Z,86.62
2018-11-03T01:08:13.605Z,87.51
2018-11-03T01:10:42.287Z,87.12
2018-11-03T01:13:10.880Z,86.70
2018-11-03T01:15:39.460Z,86.90
2018-11-03T01:18:08.127Z,87.15
2018-11-03T01:20:36.775Z,87.06
2018-11-03T01:23:05.620Z,86.74
2018-11-03T01:25:34.256Z,87.77
2018-11-03T01:28:02.904Z,87.77
2018-11-03T01:30:31.548Z,87.69
2018-11-03T01:33:00.216Z,87.47
2018-11-03T01:35:28.977Z,87.57
2018-11-03T01:37:57.617Z,87.96
2018-11-03T01:40:26.261Z,87.85
2018-11-03T01:42:54.876Z,87.88
2018-11-03T01:45:23.523Z,88.04
2018-11-03T01:47:52.171Z,88.37
2018-11-03T01:50:20.832Z,88.43
2018-11-03T01:52:49.486Z,89.02
2018-11-03T01:55:18.149Z,89.40
2018-11-03T01:57:46.768Z,89.43
2018-11-03T02:00:15.409Z,90.13
2018-11-03T02:02:44.036Z,90.16
2018-11-03T02:05:12.721Z,91.01
2018-11-03T02:07:41.321Z,91.42
2018-11-03T02:10:11.057Z,91.74
2018-11-03T02:12:39.819Z,92.09
2018-11-03T02:15:08.883Z,91.55
2018-11-03T02:17:37.680Z,91.68
2018-11-03T02:20:07.355Z,91.28
2018-11-03T02:22:35.917Z,90.62
2018-11-03T02:25:04.498Z,90.70
2018-11-03T02:27:33.138Z,90.61
2018-11-03T02:30:01.817Z,90.72
2018-11-03T02:32:30.455Z,90.63
2018-11-03T02:34:59.075Z,90.81
2018-11-03T02:37:27.732Z,91.61
2018-11-03T02:39:56.358Z,91.49
2018-11-03T02:42:24.978Z,91.19
2018-11-03T02:44:53.592Z,91.26
2018-11-03T02:47:22.216Z,91.39
2018-11-03T02:49:50.874Z,90.84
2018-11-03T02:52:19.496Z,90.62
2018-11-03T02:54:48.175Z,90.17
2018-11-03T02:57:16.853Z,90.37
2018-11-03T02:59:45.461Z,90.36
2018-11-03T03:02:14.137Z,90.49
2018-11-03T03:04:42.852Z,90.69
2018-11-03T03:07:11.445Z,90.67
2018-11-03T03:09:40.037Z,91.35
2018-11-03T03:12:08.673Z,91.16
2018-11-03T03:14:37.271Z,90.87
2018-11-03T03:17:05.924Z,90.77
2018-11-03T03:19:34.544Z,90.97
2018-11-03T03:22:03.204Z,90.93
2018-11-03T03:24:31.836Z,90.70
2018-11-03T03:27:01.561Z,90.46
2018-11-03T03:29:30.258Z,90.41
2018-11-03T03:31:58.837Z,90.63
2018-11-03T03:34:27.477Z,90.58
2018-11-03T03:36:56.112Z,90.23
2018-11-03T03:39:24.746Z,90.42
2018-11-03T03:41:53.384Z,90.17
2018-11-03T03:44:21.994Z,90.25
2018-11-03T03:46:50.623Z,89.66
2018-11-03T03:49:19.290Z,90.36
2018-11-03T03:51:47.908Z,90.38
2018-11-03T03:54:16.555Z,90.55
2018-11-03T03:56:45.158Z,91.02
2018-11-03T03:59:13.780Z,90.71
2018-11-03T04:01:42.396Z,90.38
2018-11-03T04:04:11.062Z,90.87
2018-11-03T04:06:39.699Z,90.90
2018-11-03T04:09:08.905Z,91.02
2018-11-03T04:11:37.536Z,90.66
2018-11-03T04:14:06.149Z,90.36
2018-11-03T04:16:34.796Z,90.64
2018-11-03T04:19:03.496Z,90.75
2018-11-03T04:21:32.167Z,91.34
2018-11-03T04:24:00.823Z,91.33
2018-11-03T04:26:30.378Z,91.42
2018-11-03T04:28:59.526Z,92.01
2018-11-03T04:31:28.585Z,92.25
2018-11-03T04:33:58.792Z,91.68
2018-11-03T04:36:27.429Z,91.88
2018-11-03T04:38:56.391Z,92.25
2018-11-03T04:41:25.025Z,92.35
2018-11-03T04:43:53.765Z,92.09
2018-11-03T04:46:22.395Z,92.48
2018-11-03T04:48:56.565Z,92.51
2018-11-03T04:51:25.180Z,92.37
2018-11-03T04:53:53.840Z,92.55
2018-11-03T04:56:22.477Z,92.64
2018-11-03T04:58:51.156Z,92.68
2018-11-03T05:01:19.776Z,92.50
2018-11-03T05:03:48.428Z,92.75
2018-11-03T05:06:17.113Z,92.75
2018-11-03T05:08:46.146Z,92.83
2018-11-03T05:11:15.012Z,92.99
2018-11-03T05:13:43.860Z,92.82
2018-11-03T05:16:12.549Z,93.01
2018-11-03T05:18:41.447Z,92.42
2018-11-03T05:21:10.097Z,92.19
2018-11-03T05:23:38.684Z,92.31
2018-11-03T05:26:07.340Z,93.14
2018-11-03T05:28:36.093Z,93.41
2018-11-03T05:31:04.834Z,93.25
2018-11-03T05:33:33.465Z,93.14
2018-11-03T05:36:02.071Z,93.29
2018-11-03T05:38:30.790Z,93.22
2018-11-03T05:40:59.397Z,93.38
2018-11-03T05:43:28.021Z,93.92
2018-11-03T05:45:56.663Z,94.01
2018-11-03T05:48:25.342Z,93.83
2018-11-03T05:50:53.936Z,93.53
2018-11-03T05:53:22.568Z,93.66
2018-11-03T05:55:51.202Z,94.12
2018-11-03T05:58:19.903Z,94.15
2018-11-03T06:00:48.529Z,94.18
2018-11-03T06:03:17.169Z,94.21
2018-11-03T06:05:45.817Z,94.10
2018-11-03T06:08:14.496Z,94.07
2018-11-03T06:10:43.140Z,93.79
2018-11-03T06:13:11.828Z,93.64
2018-11-03T06:15:40.582Z,93.65
2018-11-03T06:18:09.627Z,93.92
2018-11-03T06:20:38.269Z,93.94
2018-11-03T06:23:07.201Z,93.85
2018-11-03T06:25:35.798Z,93.67
2018-11-03T06:28:04.656Z,94.28
2018-11-03T06:30:33.258Z,94.66
2018-11-03T06:33:01.965Z,94.70
2018-11-03T06:35:30.629Z,94.58
2018-11-03T06:37:59.303Z,94.38
2018-11-03T06:40:27.957Z,94.22
2018-11-03T06:42:56.646Z,94.49
2018-11-03T06:45:25.250Z,94.15
2018-11-03T06:47:53.891Z,94.10
2018-11-03T06:50:22.556Z,94.22
2018-11-03T06:52:51.322Z,93.96
2018-11-03T06:55:19.956Z,93.88
2018-11-03T06:57:48.575Z,94.48
2018-11-03T07:00:17.176Z,94.87
2018-11-03T07:02:45.775Z,94.79
2018-11-03T07:05:14.545Z,94.20
2018-11-03T07:07:43.096Z,94.07
2018-11-03T07:10:11.996Z,93.99
2018-11-03T07:12:41.055Z,93.79
2018-11-03T07:15:09.476Z,93.75
2018-11-03T07:17:38.157Z,93.73
2018-11-03T07:20:08.789Z,93.42
2018-11-03T07:22:37.425Z,93.19
2018-11-03T07:25:06.875Z,96.15
2018-11-03T07:27:35.484Z,94.51
2018-11-03T07:30:05.480Z,93.20
2018-11-03T07:32:34.133Z,92.99
2018-11-03T07:35:02.752Z,92.52
2018-11-03T07:37:31.436Z,92.68
2018-11-03T07:40:00.106Z,93.09
2018-11-03T07:42:29.699Z,93.52
2018-11-03T07:44:58.326Z,93.53
2018-11-03T07:47:26.994Z,93.64
2018-11-03T07:49:55.688Z,93.64
2018-11-03T07:52:24.303Z,94.01
2018-11-03T07:54:53.024Z,94.19
2018-11-03T07:57:21.759Z,94.20
2018-11-03T07:59:50.447Z,94.12
2018-11-03T08:02:19.107Z,94.06
2018-11-03T08:04:47.828Z,93.84
2018-11-03T08:07:16.447Z,93.71
2018-11-03T08:09:45.172Z,93.81
2018-11-03T08:12:13.818Z,93.68
2018-11-03T08:14:42.508Z,93.37
2018-11-03T08:17:11.150Z,93.26
2018-11-03T08:19:39.802Z,93.63
2018-11-03T08:22:08.442Z,93.84
2018-11-03T08:24:37.124Z,93.30
2018-11-03T08:27:05.832Z,92.78
2018-11-03T08:29:34.598Z,91.71
2018-11-03T08:32:03.291Z,92.11
2018-11-03T08:34:32.198Z,91.72
2018-11-03T08:37:00.845Z,91.79
2018-11-03T08:39:29.745Z,91.09
2018-11-03T08:41:58.392Z,90.37
2018-11-03T08:44:27.045Z,89.91
2018-11-03T08:46:55.795Z,90.10
2018-11-03T08:49:24.446Z,89.78
2018-11-03T08:51:53.107Z,89.48
2018-11-03T08:54:22.393Z,89.51
2018-11-03T08:56:51.290Z,88.56
2018-11-03T08:59:19.895Z,88.13
2018-11-03T09:01:48.573Z,87.89
2018-11-03T09:04:17.339Z,86.80
2018-11-03T09:06:46.142Z,86.53
2018-11-03T09:09:14.776Z,85.75
2018-11-03T09:11:43.403Z,85.14
2018-11-03T09:14:12.083Z,85.05
2018-11-03T09:16:40.677Z,84.10
2018-11-03T09:19:09.351Z,83.73
2018-11-03T09:21:38.155Z,83.58
2018-11-03T09:24:06.954Z,83.30
2018-11-03T09:26:35.696Z,82.79
2018-11-03T09:29:04.485Z,82.07
2018-11-03T09:31:33.276Z,81.48
2018-11-03T09:34:01.917Z,81.06
2018-11-03T09:36:30.568Z,80.42
2018-11-03T09:38:59.264Z,80.46
2018-11-03T09:41:27.837Z,80.20
2018-11-03T09:43:56.588Z,79.32
2018-11-03T09:46:25.245Z,78.23
2018-11-03T09:48:53.866Z,77.44
2018-11-03T09:51:22.544Z,77.60
2018-11-03T09:53:51.202Z,77.32
2018-11-03T09:56:19.897Z,77.24
2018-11-03T09:58:48.484Z,75.80
2018-11-03T10:01:17.129Z,75.06
2018-11-03T10:03:45.776Z,75.12
2018-11-03T10:06:14.480Z,74.82
2018-11-03T10:08:43.135Z,74.31
2018-11-03T10:11:11.795Z,73.81
2018-11-03T10:13:40.508Z,72.94
2018-11-03T10:16:09.359Z,71.75
2018-11-03T10:18:37.975Z,71.77
2018-11-03T10:21:06.649Z,71.93
2018-11-03T10:23:35.552Z,71.53
2018-11-03T10:26:04.569Z,71.16
2018-11-03T10:28:33.187Z,71.51
2018-11-03T10:31:01.835Z,71.08
2018-11-03T10:33:30.569Z,71.27
2018-11-03T10:35:59.195Z,71.23
2018-11-03T10:38:27.811Z,71.25
2018-11-03T10:40:56.483Z,70.48
2018-11-03T10:43:25.084Z,69.60
2018-11-03T10:45:53.758Z,69.50
2018-11-03T10:48:22.361Z,71.15
2018-11-03T10:50:51.113Z,71.77
2018-11-03T10:53:19.851Z,71.53
2018-11-03T10:55:48.539Z,71.72
2018-11-03T10:58:17.165Z,70.86
2018-11-03T11:00:51.207Z,70.34
2018-11-03T11:03:25.230Z,70.40
2018-11-03T11:05:59.252Z,71.07
2018-11-03T11:08:33.233Z,70.75
2018-11-03T11:11:07.216Z,70.02
2018-11-03T11:13:37.124Z,69.82
2018-11-03T11:16:05.798Z,69.46
2018-11-03T11:18:34.408Z,67.01
2018-11-03T11:21:03.074Z,69.08
2018-11-03T11:23:31.723Z,69.34
2018-11-03T11:26:00.319Z,69.41
2018-11-03T11:28:28.941Z,70.44
2018-11-03T11:30:57.581Z,69.96
2018-11-03T11:33:26.321Z,70.54
2018-11-03T11:35:54.972Z,71.95
2018-11-03T11:38:23.589Z,70.16
2018-11-03T11:40:52.195Z,69.80
2018-11-03T11:43:20.969Z,69.49
2018-11-03T11:45:49.497Z,69.50
2018-11-03T11:48:18.104Z,69.79
2018-11-03T11:50:46.806Z,70.10
2018-11-03T11:53:15.373Z,69.07
2018-11-03T11:55:44.041Z,67.28
2018-11-03T11:58:12.672Z,67.25
2018-11-03T12:00:41.383Z,67.47
2018-11-03T12:03:09.966Z,67.47
2018-11-03T12:05:38.604Z,66.63
2018-11-03T12:08:07.291Z,67.16
2018-11-03T12:10:35.909Z,68.31
2018-11-03T12:13:04.827Z,68.80
2018-11-03T12:15:33.482Z,69.52
2018-11-03T12:18:02.096Z,69.96
2018-11-03T12:20:30.732Z,70.92
2018-11-03T12:22:59.393Z,70.28
2018-11-03T12:25:28.077Z,71.18
2018-11-03T12:27:56.729Z,71.23
2018-11-03T12:30:25.423Z,71.18
2018-11-03T12:32:54.066Z,71.38
2018-11-03T12:35:22.685Z,71.17
2018-11-03T12:37:51.338Z,71.59
2018-11-03T12:40:20.008Z,71.66
2018-11-03T12:42:48.624Z,71.95
2018-11-03T12:45:17.276Z,72.27
2018-11-03T12:47:45.916Z,71.95
2018-11-03T12:50:16.034Z,70.28
2018-11-03T12:52:44.967Z,70.56
2018-11-03T12:55:13.624Z,71.23
2018-11-03T12:57:42.868Z,71.13
2018-11-03T13:00:13.096Z,71.47
2018-11-03T13:02:42.748Z,71.10
2018-11-03T13:05:11.456Z,69.41
2018-11-03T13:07:41.431Z,69.08
2018-11-03T13:10:10.523Z,68.05
2018-11-03T13:12:39.904Z,66.95
2018-11-03T13:15:09.511Z,65.13
2018-11-03T13:17:38.330Z,65.59
2018-11-03T13:20:08.292Z,65.41
2018-11-03T13:22:36.950Z,65.01
2018-11-03T13:25:06.375Z,66.07
2018-11-03T13:27:35.043Z,66.48
2018-11-03T13:30:03.704Z,66.74
2018-11-03T13:32:32.368Z,66.72
2018-11-03T13:35:01.100Z,66.53
2018-11-03T13:37:29.719Z,66.54
2018-11-03T13:39:58.569Z,67.42
2018-11-03T13:42:27.253Z,68.29
2018-11-03T13:44:55.904Z,68.31
2018-11-03T13:47:24.729Z,72.51
2018-11-03T13:49:53.240Z,69.14
2018-11-03T13:52:21.904Z,71.07
2018-11-03T13:54:51.791Z,70.26
2018-11-03T13:57:20.441Z,68.99
2018-11-03T13:59:49.139Z,70.15
2018-11-03T14:02:17.774Z,69.48
2018-11-03T14:04:46.597Z,71.56
2018-11-03T14:07:15.277Z,70.84
2018-11-03T14:09:43.971Z,71.68
2018-11-03T14:12:12.649Z,71.01
2018-11-03T14:14:41.380Z,71.85
2018-11-03T14:17:10.116Z,70.59
2018-11-03T14:19:38.667Z,70.93
2018-11-03T14:22:07.352Z,70.98
2018-11-03T14:24:36.217Z,70.56
2018-11-03T14:27:04.923Z,70.43
2018-11-03T14:29:33.543Z,73.09
2018-11-03T14:32:02.184Z,71.59
2018-11-03T14:34:30.800Z,71.92
2018-11-03T14:36:59.413Z,71.81
2018-11-03T14:39:28.024Z,71.41
2018-11-03T14:41:56.836Z,71.11
2018-11-03T14:44:25.491Z,72.27
2018-11-03T14:46:54.225Z,72.94
2018-11-03T14:49:22.791Z,73.11
2018-11-03T14:51:51.451Z,72.21
2018-11-03T14:54:20.129Z,73.14
2018-11-03T14:56:48.992Z,73.36
2018-11-03T14:59:17.600Z,73.63
2018-11-03T15:01:46.228Z,73.64
2018-11-03T15:04:15.013Z,74.07
2018-11-03T15:06:44.773Z,74.11
2018-11-03T15:09:13.441Z,74.72
2018-11-03T15:11:42.127Z,75.04
2018-11-03T15:14:10.812Z,74.92
2018-11-03T15:16:40.308Z,74.53
2018-11-03T15:19:09.294Z,74.72
2018-11-03T15:21:38.045Z,74.78
2018-11-03T15:24:06.760Z,74.84
2018-11-03T15:26:35.561Z,74.65
2018-11-03T15:29:04.314Z,75.52
2018-11-03T15:31:33.039Z,75.33
2018-11-03T15:34:01.893Z,75.01
2018-11-03T15:36:30.608Z,75.65
2018-11-03T15:38:59.367Z,75.93
2018-11-03T15:41:28.106Z,75.99
2018-11-03T15:43:56.631Z,76.03
2018-11-03T15:46:25.600Z,77.16
2018-11-03T15:48:54.225Z,77.41
2018-11-03T15:51:22.837Z,77.38
2018-11-03T15:53:51.731Z,77.57
2018-11-03T15:56:20.397Z,78.12
2018-11-03T15:58:49.030Z,78.11
2018-11-03T16:01:17.640Z,78.68
2018-11-03T16:03:46.378Z,78.56
2018-11-03T16:06:15.001Z,77.88
2018-11-03T16:08:43.642Z,78.94
2018-11-03T16:11:12.272Z,78.88
2018-11-03T16:13:40.964Z,79.19
2018-11-03T16:16:10.311Z,79.51
2018-11-03T16:18:39.228Z,79.81
2018-11-03T16:21:07.901Z,80.29
2018-11-03T16:23:36.549Z,80.48
2018-11-03T16:26:05.209Z,80.60
2018-11-03T16:28:34.056Z,80.81
2018-11-03T16:31:02.813Z,81.05
2018-11-03T16:33:31.521Z,81.58
2018-11-03T16:36:00.249Z,82.36
2018-11-03T16:38:29.196Z,82.70
2018-11-03T16:40:57.704Z,82.85
2018-11-03T16:43:26.344Z,83.03
2018-11-03T16:45:55.197Z,83.12
2018-11-03T16:48:23.956Z,83.25
2018-11-03T16:50:53.593Z,83.69
2018-11-03T16:53:22.332Z,83.95
2018-11-03T16:55:50.948Z,84.17
2018-11-03T16:58:19.595Z,84.06
2018-11-03T17:00:48.186Z,84.37
2018-11-03T17:03:16.834Z,84.55
2018-11-03T17:05:45.483Z,84.22
2018-11-03T17:08:14.128Z,84.86
2018-11-03T17:10:42.796Z,85.11
2018-11-03T17:13:11.536Z,85.43
2018-11-03T17:15:40.106Z,85.40
2018-11-03T17:18:09.003Z,85.59
2018-11-03T17:20:37.629Z,85.41
2018-11-03T17:23:06.334Z,85.46
2018-11-03T17:25:35.969Z,85.27
2018-11-03T17:28:04.618Z,85.09
2018-11-03T17:30:33.357Z,84.84
2018-11-03T17:33:02.011Z,84.35
2018-11-03T17:35:30.667Z,84.56
2018-11-03T17:37:59.316Z,84.79
2018-11-03T17:40:27.925Z,85.14
2018-11-03T17:42:56.677Z,85.10
2018-11-03T17:45:25.297Z,85.27
2018-11-03T17:47:54.005Z,84.95
2018-11-03T17:50:22.676Z,84.85
2018-11-03T17:52:51.318Z,85.05
2018-11-03T17:55:19.968Z,85.18
2018-11-03T17:57:48.640Z,84.92
2018-11-03T18:00:17.659Z,84.69
2018-11-03T18:02:46.765Z,84.95
2018-11-03T18:05:16.114Z,85.59
2018-11-03T18:07:44.759Z,85.53
2018-11-03T18:10:13.661Z,85.80
2018-11-03T18:12:42.872Z,85.69
2018-11-03T18:15:11.912Z,85.59
2018-11-03T18:17:40.968Z,85.50
2018-11-03T18:20:10.431Z,85.74
2018-11-03T18:22:39.413Z,85.50
2018-11-03T18:25:08.406Z,84.86
2018-11-03T18:27:37.020Z,84.75
2018-11-03T18:30:07.257Z,85.19
2018-11-03T18:32:35.956Z,85.21
2018-11-03T18:35:04.601Z,85.31
2018-11-03T18:37:33.899Z,85.42
2018-11-03T18:40:03.325Z,86.01
2018-11-03T18:42:31.975Z,85.68
2018-11-03T18:45:00.682Z,85.08
2018-11-03T18:47:29.268Z,85.15
2018-11-03T18:49:58.279Z,86.15
2018-11-03T18:52:27.095Z,86.18
2018-11-03T18:54:55.836Z,86.11
2018-11-03T18:57:24.482Z,86.09
2018-11-03T18:59:53.125Z,87.00
2018-11-03T19:02:21.820Z,87.21
2018-11-03T19:04:50.371Z,86.49
2018-11-03T19:07:19.202Z,86.38
2018-11-03T19:09:48.215Z,86.33
2018-11-03T19:12:16.903Z,86.37
2018-11-03T19:14:45.545Z,87.33
2018-11-03T19:17:14.358Z,87.31
2018-11-03T19:19:42.912Z,87.72
2018-11-03T19:22:11.565Z,87.46
2018-11-03T19:24:40.264Z,88.04
2018-11-03T19:27:08.953Z,88.04
2018-11-03T19:29:37.675Z,87.94
2018-11-03T19:32:07.628Z,88.29
2018-11-03T19:34:36.252Z,88.61
2018-11-03T19:37:05.078Z,88.25
2018-11-03T19:39:33.785Z,88.36
2018-11-03T19:42:02.482Z,88.24
2018-11-03T19:44:31.136Z,88.02
2018-11-03T19:46:59.808Z,88.14
2018-11-03T19:49:28.404Z,88.28
2018-11-03T19:51:57.077Z,89.12
2018-11-03T19:54:25.744Z,88.79
2018-11-03T19:56:54.461Z,88.43
2018-11-03T19:59:23.164Z,88.93
2018-11-03T20:01:51.808Z,88.70
2018-11-03T20:04:20.456Z,88.50
2018-11-03T20:06:49.072Z,88.14
2018-11-03T20:09:17.691Z,88.22
2018-11-03T20:11:46.417Z,89.58
2018-11-03T20:14:15.041Z,89.16
2018-11-03T20:16:43.687Z,89.36
2018-11-03T20:19:12.373Z,89.56
2018-11-03T20:21:41.032Z,89.04
2018-11-03T20:24:09.689Z,88.61
2018-11-03T20:26:38.325Z,87.99
2018-11-03T20:29:06.959Z,88.54
2018-11-03T20:31:35.588Z,88.55
2018-11-03T20:34:04.428Z,89.64
2018-11-03T20:36:33.089Z,89.51
2018-11-03T20:39:01.848Z,89.81
2018-11-03T20:41:30.780Z,90.35
2018-11-03T20:43:59.462Z,90.27
2018-11-03T20:46:28.072Z,89.65
2018-11-03T20:48:56.747Z,89.55
2018-11-03T20:51:25.458Z,89.23
2018-11-03T20:53:54.211Z,89.52
2018-11-03T20:56:22.692Z,89.94
2018-11-03T20:58:51.328Z,89.56
2018-11-03T21:01:20.062Z,89.81
2018-11-03T21:03:48.741Z,90.35
2018-11-03T21:06:17.375Z,89.70
2018-11-03T21:08:46.033Z,89.68
2018-11-03T21:11:14.704Z,89.68
2018-11-03T21:13:43.354Z,90.47
2018-11-03T21:16:11.990Z,90.32
2018-11-03T21:18:40.661Z,90.87
2018-11-03T21:21:09.274Z,90.94
2018-11-03T21:23:37.943Z,90.87
2018-11-03T21:26:06.533Z,90.65
2018-11-03T21:28:35.153Z,90.36
2018-11-03T21:31:03.809Z,89.82
2018-11-03T21:33:32.479Z,89.71
2018-11-03T21:36:01.124Z,89.56
2018-11-03T21:38:29.836Z,89.00
2018-11-03T21:40:58.497Z,88.90
2018-11-03T21:43:27.188Z,88.62
2018-11-03T21:45:55.841Z,88.56
2018-11-03T21:48:24.429Z,89.35
2018-11-03T21:50:53.148Z,89.51
2018-11-03T21:53:21.811Z,89.38
2018-11-03T21:55:50.460Z,89.74
2018-11-03T21:58:19.131Z,89.28
2018-11-03T22:00:47.748Z,90.02
2018-11-03T22:03:16.456Z,90.45
2018-11-03T22:05:45.332Z,89.94
2018-11-03T22:08:13.988Z,89.90
2018-11-03T22:10:42.883Z,89.46
2018-11-03T22:13:11.549Z,89.64
2018-11-03T22:15:40.205Z,89.87
2018-11-03T22:18:08.884Z,89.75
2018-11-03T22:20:37.582Z,90.81
2018-11-03T22:23:06.849Z,91.01
2018-11-03T22:25:35.577Z,90.50
2018-11-03T22:28:04.493Z,90.26
2018-11-03T22:30:33.428Z,90.39
2018-11-03T22:33:02.508Z,90.61
2018-11-03T22:35:32.249Z,90.80
2018-11-03T22:38:01.122Z,90.92
2018-11-03T22:40:29.895Z,90.45
2018-11-03T22:42:58.618Z,91.48
2018-11-03T22:45:27.393Z,91.01
2018-11-03T22:47:56.661Z,90.46
2018-11-03T22:50:25.324Z,90.52
2018-11-03T22:52:53.981Z,90.59
2018-11-03T22:55:22.732Z,89.82
2018-11-03T22:57:52.137Z,89.31
2018-11-03T23:00:20.756Z,90.13
2018-11-03T23:02:49.488Z,89.97
2018-11-03T23:05:18.251Z,89.87
2018-11-03T23:07:47.033Z,90.94
2018-11-03T23:10:15.705Z,91.52
2018-11-03T23:12:44.431Z,91.93
2018-11-03T23:15:13.251Z,91.99
2018-11-03T23:17:41.974Z,92.15
2018-11-03T23:20:12.592Z,92.19
2018-11-03T23:22:41.268Z,92.26
2018-11-03T23:25:10.517Z,92.48
2018-11-03T23:27:39.291Z,92.39
2018-11-03T23:30:09.701Z,91.52
2018-11-03T23:32:38.498Z,91.20
2018-11-03T23:35:08.775Z,90.26
2018-11-03T23:37:37.434Z,89.79
2018-11-03T23:40:06.676Z,89.91
2018-11-03T23:42:35.332Z,89.58
2018-11-03T23:45:04.344Z,89.75
2018-11-03T23:47:33.020Z,90.31
2018-11-03T23:50:01.684Z,91.11
2018-11-03T23:52:34.432Z,91.04
2018-11-03T23:55:04.684Z,90.97
2018-11-03T23:57:33.344Z,91.52
